Time;durP1;ratioP1;P1;durP2;ratioP2;P2;SDS_P1;SDS_P2;PMS_P1;PMS_P2;Temp;Humidity;BMP_temperature;BMP_pressure;BME280_temperature;BME280_humidity;BME280_pressure;Samples;Min_cycle;Max_cycle;Signal;HPM_P1;HPM_P2
2021/03/21 00:00:47;;;;;;;1999.90;999.90;;;;;;;;;;5077435;28;20481;-32
2021/03/21 00:03:35;;;;;;;1999.90;999.90;;;;;;;;;;5077323;28;20277;-33
2021/03/21 00:06:22;;;;;;;1999.90;999.90;;;;;;;;;;5077117;28;20226;-34
2021/03/21 00:09:12;;;;;;;1999.90;999.90;;;;;;;;;;5077484;28;20200;-32
2021/03/21 00:11:58;;;;;;;1999.90;999.90;;;;;;;;;;5076924;28;20458;-38
2021/03/21 00:14:45;;;;;;;1999.90;999.90;;;;;;;;;;5076864;28;20237;-34
2021/03/21 00:17:32;;;;;;;1999.90;999.90;;;;;;;;;;5077047;28;20210;-32
2021/03/21 00:20:20;;;;;;;1999.90;999.90;;;;;;;;;;5076798;28;20205;-35
2021/03/21 00:23:08;;;;;;;1999.90;999.90;;;;;;;;;;5077087;28;20199;-31
2021/03/21 00:25:54;;;;;;;1999.90;999.90;;;;;;;;;;5076793;28;20565;-31
2021/03/21 00:28:40;;;;;;;1999.90;999.90;;;;;;;;;;5077087;28;20355;-33
2021/03/21 00:31:28;;;;;;;1999.90;999.90;;;;;;;;;;5076632;28;20238;-33
2021/03/21 00:34:17;;;;;;;1999.90;999.90;;;;;;;;;;5076857;28;20292;-33
2021/03/21 00:37:05;;;;;;;1999.90;999.90;;;;;;;;;;5077036;28;20188;-35
2021/03/21 00:39:53;;;;;;;1999.90;999.90;;;;;;;;;;5076817;28;20342;-34
2021/03/21 00:42:43;;;;;;;1999.90;999.90;;;;;;;;;;5077095;28;20204;-33
2021/03/21 00:45:30;;;;;;;1999.90;999.90;;;;;;;;;;5076559;28;20501;-32
2021/03/21 00:48:17;;;;;;;1999.90;999.90;;;;;;;;;;5076734;28;20196;-32
2021/03/21 00:51:04;;;;;;;1999.90;999.90;;;;;;;;;;5076867;28;20599;-33
2021/03/21 00:53:50;;;;;;;1999.90;999.90;;;;;;;;;;5076715;28;20529;-33
2021/03/21 00:56:38;;;;;;;1999.90;999.90;;;;;;;;;;5077739;28;20193;-32
2021/03/21 00:59:23;;;;;;;1999.90;999.90;;;;;;;;;;5080793;28;20208;-36
2021/03/21 01:02:12;;;;;;;1999.90;999.90;;;;;;;;;;5080679;28;20196;-35
2021/03/21 01:05:00;;;;;;;1999.90;999.90;;;;;;;;;;5080193;28;20200;-33
2021/03/21 01:07:48;;;;;;;1999.90;999.90;;;;;;;;;;5080788;28;20196;-31
2021/03/21 01:10:35;;;;;;;1999.90;999.90;;;;;;;;;;5080212;28;20550;-34
2021/03/21 01:13:23;;;;;;;1999.90;999.90;;;;;;;;;;5080805;28;20616;-33
2021/03/21 01:16:12;;;;;;;1999.90;999.90;;;;;;;;;;5080317;28;20204;-37
2021/03/21 01:18:59;;;;;;;1999.90;999.90;;;;;;;;;;5080140;28;20584;-35
2021/03/21 01:21:46;;;;;;;1999.90;999.90;;;;;;;;;;5080069;28;20253;-31
2021/03/21 01:24:35;;;;;;;1999.90;999.90;;;;;;;;;;5080445;28;20311;-33
2021/03/21 01:27:21;;;;;;;1999.90;999.90;;;;;;;;;;5080131;28;20496;-35
2021/03/21 01:30:08;;;;;;;1999.90;999.90;;;;;;;;;;5080272;28;20452;-32
2021/03/21 01:32:55;;;;;;;1999.90;999.90;;;;;;;;;;5080208;28;20260;-31
2021/03/21 01:35:41;;;;;;;1999.90;999.90;;;;;;;;;;5079796;28;20192;-35
2021/03/21 01:38:30;;;;;;;1999.90;999.90;;;;;;;;;;5080636;28;20205;-32
2021/03/21 01:41:17;;;;;;;1999.90;999.90;;;;;;;;;;5080057;28;20201;-32
2021/03/21 01:44:05;;;;;;;1999.90;999.90;;;;;;;;;;5079774;28;20270;-35
2021/03/21 01:47:05;;;;;;;1999.90;999.90;;;;;;;;;;5079741;28;20228;-32
2021/03/21 01:49:52;;;;;;;1999.90;999.90;;;;;;;;;;5079631;28;20263;-35
2021/03/21 01:52:40;;;;;;;1999.90;999.90;;;;;;;;;;5079593;28;20633;-31
2021/03/21 01:55:26;;;;;;;1999.90;999.90;;;;;;;;;;5079675;28;20250;-32
2021/03/21 01:58:19;;;;;;;1999.90;999.90;;;;;;;;;;5079407;28;20201;-34
2021/03/21 02:01:08;;;;;;;1999.90;999.90;;;;;;;;;;5079534;28;20346;-37
2021/03/21 02:03:55;;;;;;;1999.90;999.90;;;;;;;;;;5079532;28;20210;-33
2021/03/21 02:06:52;;;;;;;1999.90;999.90;;;;;;;;;;5079450;28;20317;-32
2021/03/21 02:09:42;;;;;;;1999.90;999.90;;;;;;;;;;5079605;28;20197;-33
2021/03/21 02:12:32;;;;;;;1999.90;999.90;;;;;;;;;;5079370;28;20604;-36
2021/03/21 02:15:21;;;;;;;1999.90;999.90;;;;;;;;;;5079210;28;20242;-39
2021/03/21 02:18:14;;;;;;;1999.90;999.90;;;;;;;;;;5079169;28;20252;-35
2021/03/21 02:21:18;;;;;;;1999.90;999.90;;;;;;;;;;5079689;28;20597;-32
2021/03/21 02:24:23;;;;;;;1999.90;999.90;;;;;;;;;;5079469;28;20192;-34
2021/03/21 02:27:27;;;;;;;1999.90;999.90;;;;;;;;;;5049436;28;20317;-35
2021/03/21 02:30:15;;;;;;;1999.90;999.90;;;;;;;;;;5078552;28;20347;-32
2021/03/21 02:33:03;;;;;;;1999.90;999.90;;;;;;;;;;5078910;28;20227;-34
2021/03/21 02:35:53;;;;;;;1999.90;999.90;;;;;;;;;;5079053;28;20254;-34
2021/03/21 02:38:44;;;;;;;1999.90;999.90;;;;;;;;;;5078877;28;20343;-31
2021/03/21 02:41:47;;;;;;;1999.90;999.90;;;;;;;;;;5078857;28;20241;-31
2021/03/21 02:44:36;;;;;;;1999.90;999.90;;;;;;;;;;5078726;28;20220;-36
2021/03/21 02:47:25;;;;;;;1999.90;999.90;;;;;;;;;;5078477;28;20224;-31
2021/03/21 02:50:15;;;;;;;1999.90;999.90;;;;;;;;;;5078302;28;20219;-33
2021/03/21 02:53:04;;;;;;;1999.90;999.90;;;;;;;;;;5078343;28;20355;-30
2021/03/21 02:55:56;;;;;;;1999.90;999.90;;;;;;;;;;5078409;28;20226;-32
2021/03/21 02:58:43;;;;;;;1999.90;999.90;;;;;;;;;;5078262;28;20200;-34
2021/03/21 03:01:30;;;;;;;1999.90;999.90;;;;;;;;;;5078367;28;20199;-32
2021/03/21 03:04:19;;;;;;;1999.90;999.90;;;;;;;;;;5078697;28;20496;-35
2021/03/21 03:07:09;;;;;;;1999.90;999.90;;;;;;;;;;5077725;28;20697;-33
2021/03/21 03:09:57;;;;;;;1999.90;999.90;;;;;;;;;;5077796;28;20302;-33
2021/03/21 03:12:45;;;;;;;1999.90;999.90;;;;;;;;;;5078502;28;20664;-33
2021/03/21 03:15:32;;;;;;;1999.90;999.90;;;;;;;;;;5078133;28;20233;-33
2021/03/21 03:18:23;;;;;;;1999.90;999.90;;;;;;;;;;5077980;28;20314;-31
2021/03/21 03:21:12;;;;;;;1999.90;999.90;;;;;;;;;;5077833;28;20254;-31
2021/03/21 03:24:02;;;;;;;1999.90;999.90;;;;;;;;;;5077326;28;20269;-35
2021/03/21 03:26:50;;;;;;;1999.90;999.90;;;;;;;;;;5077819;28;20227;-36
2021/03/21 03:29:48;;;;;;;1999.90;999.90;;;;;;;;;;5077807;28;20204;-31
2021/03/21 03:32:33;;;;;;;1999.90;999.90;;;;;;;;;;5077974;28;20466;-31
2021/03/21 03:35:20;;;;;;;1999.90;999.90;;;;;;;;;;5077934;28;20616;-33
2021/03/21 03:38:08;;;;;;;1999.90;999.90;;;;;;;;;;5077493;28;20197;-32
2021/03/21 03:40:56;;;;;;;1999.90;999.90;;;;;;;;;;5078008;28;20300;-31
2021/03/21 03:43:47;;;;;;;1999.90;999.90;;;;;;;;;;5077945;28;20197;-34
2021/03/21 03:46:37;;;;;;;1999.90;999.90;;;;;;;;;;5077495;28;20370;-31
2021/03/21 03:49:30;;;;;;;1999.90;999.90;;;;;;;;;;5077247;28;20432;-33
2021/03/21 03:52:34;;;;;;;1999.90;999.90;;;;;;;;;;5077467;28;20311;-34
2021/03/21 03:55:24;;;;;;;1999.90;999.90;;;;;;;;;;5077716;28;20196;-32
2021/03/21 03:58:17;;;;;;;1999.90;999.90;;;;;;;;;;5077765;28;20215;-31
2021/03/21 04:01:05;;;;;;;1999.90;999.90;;;;;;;;;;5077309;28;20192;-31
2021/03/21 04:03:57;;;;;;;1999.90;999.90;;;;;;;;;;5077128;28;20199;-34
2021/03/21 04:06:48;;;;;;;1999.90;999.90;;;;;;;;;;5077175;28;20231;-35
2021/03/21 04:09:36;;;;;;;1999.90;999.90;;;;;;;;;;5077141;28;20204;-32
2021/03/21 04:12:27;;;;;;;1999.90;999.90;;;;;;;;;;5076591;28;20204;-33
2021/03/21 04:15:14;;;;;;;1999.90;999.90;;;;;;;;;;5077067;28;20243;-37
2021/03/21 04:18:03;;;;;;;1999.90;999.90;;;;;;;;;;5077180;28;20198;-32
2021/03/21 04:20:54;;;;;;;1999.90;999.90;;;;;;;;;;5077075;28;20279;-31
2021/03/21 04:23:44;;;;;;;1999.90;999.90;;;;;;;;;;5076281;28;20196;-34
2021/03/21 04:26:34;;;;;;;1999.90;999.90;;;;;;;;;;5076693;28;20635;-32
2021/03/21 04:29:23;;;;;;;1999.90;999.90;;;;;;;;;;5077093;28;20201;-31
2021/03/21 04:32:12;;;;;;;1999.90;999.90;;;;;;;;;;5076895;28;20205;-32
2021/03/21 04:35:02;;;;;;;1999.90;999.90;;;;;;;;;;5076771;28;20204;-34
2021/03/21 04:37:51;;;;;;;1999.90;999.90;;;;;;;;;;5076955;28;20197;-31
2021/03/21 04:40:37;;;;;;;1999.90;999.90;;;;;;;;;;5076549;28;20354;-34
2021/03/21 04:43:26;;;;;;;1999.90;999.90;;;;;;;;;;5076882;28;20203;-35
2021/03/21 04:46:16;;;;;;;1999.90;999.90;;;;;;;;;;5076357;28;20670;-38
2021/03/21 04:49:02;;;;;;;1999.90;999.90;;;;;;;;;;5076995;28;20425;-33
2021/03/21 04:51:50;;;;;;;1999.90;999.90;;;;;;;;;;5076918;28;20344;-34
2021/03/21 04:54:38;;;;;;;1999.90;999.90;;;;;;;;;;5077010;28;20661;-38
2021/03/21 04:57:29;;;;;;;1999.90;999.90;;;;;;;;;;5076367;28;20213;-31
2021/03/21 05:00:19;;;;;;;1999.90;999.90;;;;;;;;;;5076497;28;20196;-34
2021/03/21 05:03:10;;;;;;;1999.90;999.90;;;;;;;;;;5076459;28;20606;-31
2021/03/21 05:05:58;;;;;;;1999.90;999.90;;;;;;;;;;5075775;28;20665;-31
2021/03/21 05:08:47;;;;;;;1999.90;999.90;;;;;;;;;;5076186;28;20232;-36
2021/03/21 05:11:36;;;;;;;1999.90;999.90;;;;;;;;;;5076360;28;20495;-32
2021/03/21 05:14:26;;;;;;;1999.90;999.90;;;;;;;;;;5076325;28;20225;-33
2021/03/21 05:17:18;;;;;;;1999.90;999.90;;;;;;;;;;5075359;28;20192;-32
2021/03/21 05:20:12;;;;;;;1999.90;999.90;;;;;;;;;;5076142;28;20201;-31
2021/03/21 05:23:06;;;;;;;1999.90;999.90;;;;;;;;;;5076567;28;20202;-36
2021/03/21 05:25:53;;;;;;;1999.90;999.90;;;;;;;;;;5076156;28;20484;-33
2021/03/21 05:28:45;;;;;;;1999.90;999.90;;;;;;;;;;5076263;28;20342;-33
2021/03/21 05:31:31;;;;;;;1999.90;999.90;;;;;;;;;;5076396;28;20310;-33
2021/03/21 05:34:18;;;;;;;1999.90;999.90;;;;;;;;;;5076545;28;20193;-35
2021/03/21 05:37:12;;;;;;;1999.90;999.90;;;;;;;;;;5076869;28;20598;-35
2021/03/21 05:40:03;;;;;;;1999.90;999.90;;;;;;;;;;5076582;28;20198;-36
2021/03/21 05:43:07;;;;;;;1999.90;999.90;;;;;;;;;;5077643;28;20607;-35
2021/03/21 05:46:11;;;;;;;1999.90;999.90;;;;;;;;;;5079981;28;20197;-33
2021/03/21 05:49:13;;;;;;;1999.90;999.90;;;;;;;;;;5077463;28;20354;-32
2021/03/21 05:52:01;;;;;;;1999.90;999.90;;;;;;;;;;5079751;28;20195;-31
2021/03/21 05:55:02;;;;;;;1999.90;999.90;;;;;;;;;;5079693;28;20720;-33
2021/03/21 05:58:07;;;;;;;1999.90;999.90;;;;;;;;;;5079677;28;20258;-33
2021/03/21 06:01:11;;;;;;;1999.90;999.90;;;;;;;;;;5079676;28;20350;-36
2021/03/21 06:04:16;;;;;;;1999.90;999.90;;;;;;;;;;5079813;28;20274;-34
2021/03/21 06:07:29;;;;;;;1999.90;999.90;;;;;;;;;;5079862;28;20320;-35
2021/03/21 06:10:50;;;;;;;1999.90;999.90;;;;;;;;;;5071684;28;20203;-32
2021/03/21 06:13:47;;;;;;;1999.90;999.90;;;;;;;;;;5079241;28;20206;-35
2021/03/21 06:16:44;;;;;;;1999.90;999.90;;;;;;;;;;5039698;28;20197;-36
2021/03/21 06:19:53;;;;;;;1999.90;999.90;;;;;;;;;;5039588;28;20199;-32
2021/03/21 06:22:50;;;;;;;1999.90;999.90;;;;;;;;;;4992451;28;20203;-33
2021/03/21 06:25:54;;;;;;;1999.90;999.90;;;;;;;;;;5039513;28;20261;-31
2021/03/21 06:28:49;;;;;;;1999.90;999.90;;;;;;;;;;5039434;28;20202;-33
2021/03/21 06:31:50;;;;;;;1999.90;999.90;;;;;;;;;;5039404;28;20265;-32
2021/03/21 06:34:42;;;;;;;1999.90;999.90;;;;;;;;;;5038892;28;20197;-32
2021/03/21 06:37:40;;;;;;;1999.90;999.90;;;;;;;;;;5039662;28;20523;-35
2021/03/21 06:40:39;;;;;;;1999.90;999.90;;;;;;;;;;5038899;28;20206;-35
2021/03/21 06:43:42;;;;;;;1999.90;999.90;;;;;;;;;;5038846;28;20206;-33
2021/03/21 06:46:38;;;;;;;1999.90;999.90;;;;;;;;;;5038448;28;20341;-37
2021/03/21 06:49:38;;;;;;;1999.90;999.90;;;;;;;;;;5038826;28;20207;-35
2021/03/21 06:52:30;;;;;;;1999.90;999.90;;;;;;;;;;5038817;28;20374;-36
2021/03/21 06:55:19;;;;;;;1999.90;999.90;;;;;;;;;;5038565;28;20300;-34
2021/03/21 06:58:33;;;;;;;1999.90;999.90;;;;;;;;;;5038530;28;20478;-38
2021/03/21 07:01:21;;;;;;;1999.90;999.90;;;;;;;;;;5038610;28;20487;-36
2021/03/21 07:04:37;;;;;;;1999.90;999.90;;;;;;;;;;5038555;28;20206;-36
2021/03/21 07:07:56;;;;;;;1999.90;999.90;;;;;;;;;;5038131;28;20231;-36
2021/03/21 07:11:07;;;;;;;1999.90;999.90;;;;;;;;;;5038505;28;20203;-36
2021/03/21 07:14:20;;;;;;;1999.90;999.90;;;;;;;;;;5041930;28;20572;-34
2021/03/21 07:17:24;;;;;;;1999.90;999.90;;;;;;;;;;5078151;28;20192;-38
2021/03/21 07:20:28;;;;;;;1999.90;999.90;;;;;;;;;;5075694;28;20330;-33
2021/03/21 07:23:38;;;;;;;1999.90;999.90;;;;;;;;;;5078883;28;20234;-34
2021/03/21 07:27:00;;;;;;;1999.90;999.90;;;;;;;;;;5015883;28;20512;-36
2021/03/21 07:29:48;;;;;;;1999.90;999.90;;;;;;;;;;5069440;28;20210;-36
2021/03/21 07:33:09;;;;;;;1999.90;999.90;;;;;;;;;;5057906;28;20742;-34
2021/03/21 07:36:06;;;;;;;1999.90;999.90;;;;;;;;;;5058022;28;20207;-35
2021/03/21 07:39:05;;;;;;;1999.90;999.90;;;;;;;;;;5057096;28;20602;-32
2021/03/21 07:42:07;;;;;;;1999.90;999.90;;;;;;;;;;5057509;28;20596;-34
2021/03/21 07:44:59;;;;;;;1999.90;999.90;;;;;;;;;;5057589;28;20731;-33
2021/03/21 07:47:50;;;;;;;1999.90;999.90;;;;;;;;;;5057501;28;20238;-34
2021/03/21 07:50:45;;;;;;;1999.90;999.90;;;;;;;;;;5057113;28;20272;-32
2021/03/21 07:53:34;;;;;;;1999.90;999.90;;;;;;;;;;5057289;28;20548;-34
2021/03/21 07:56:23;;;;;;;1999.90;999.90;;;;;;;;;;5057153;28;20272;-35
2021/03/21 07:59:12;;;;;;;1999.90;999.90;;;;;;;;;;5057673;28;20274;-35
2021/03/21 08:02:00;;;;;;;1999.90;999.90;;;;;;;;;;5058263;28;20197;-36
2021/03/21 08:04:48;;;;;;;1999.90;999.90;;;;;;;;;;5057219;28;20220;-34
2021/03/21 08:07:35;;;;;;;1999.90;999.90;;;;;;;;;;5057301;28;20224;-34
2021/03/21 08:10:27;;;;;;;1999.90;999.90;;;;;;;;;;5057363;28;20204;-34
2021/03/21 08:13:17;;;;;;;1999.90;999.90;;;;;;;;;;5056914;28;20211;-35
2021/03/21 08:16:02;;;;;;;1999.90;999.90;;;;;;;;;;5056769;28;20240;-33
2021/03/21 08:18:50;;;;;;;1999.90;999.90;;;;;;;;;;5057830;28;20262;-34
2021/03/21 08:21:35;;;;;;;1999.90;999.90;;;;;;;;;;5056324;28;20268;-34
2021/03/21 08:24:24;;;;;;;1999.90;999.90;;;;;;;;;;5056523;28;20208;-34
2021/03/21 08:27:20;;;;;;;1999.90;999.90;;;;;;;;;;5056672;28;20226;-34
2021/03/21 08:30:08;;;;;;;1999.90;999.90;;;;;;;;;;5056590;28;20302;-38
2021/03/21 08:32:56;;;;;;;1999.90;999.90;;;;;;;;;;5056512;28;20305;-35
2021/03/21 08:35:44;;;;;;;1999.90;999.90;;;;;;;;;;5056739;28;20222;-35
2021/03/21 08:38:33;;;;;;;1999.90;999.90;;;;;;;;;;5056556;28;20196;-34
2021/03/21 08:41:22;;;;;;;1999.90;999.90;;;;;;;;;;5057052;28;20203;-33
2021/03/21 08:44:23;;;;;;;1999.90;999.90;;;;;;;;;;5056344;28;20487;-34
2021/03/21 08:47:16;;;;;;;1999.90;999.90;;;;;;;;;;5056589;28;20255;-32
2021/03/21 08:50:03;;;;;;;1999.90;999.90;;;;;;;;;;5057448;28;20510;-34
2021/03/21 08:52:54;;;;;;;1999.90;999.90;;;;;;;;;;5056534;28;20309;-34
2021/03/21 08:55:43;;;;;;;1999.90;999.90;;;;;;;;;;5057179;28;20219;-32
2021/03/21 08:58:28;;;;;;;1999.90;999.90;;;;;;;;;;5056416;28;20262;-34
2021/03/21 09:01:17;;;;;;;1999.90;999.90;;;;;;;;;;5056551;28;20203;-33
2021/03/21 09:04:12;;;;;;;1999.90;999.90;;;;;;;;;;5056205;28;20194;-33
2021/03/21 09:07:12;;;;;;;1999.90;999.90;;;;;;;;;;5056537;28;20634;-34
2021/03/21 09:10:08;;;;;;;1999.90;999.90;;;;;;;;;;5056367;28;20492;-34
2021/03/21 09:13:13;;;;;;;1999.90;999.90;;;;;;;;;;5054834;28;20610;-35
2021/03/21 09:16:04;;;;;;;1999.90;999.90;;;;;;;;;;5056650;28;20534;-36
2021/03/21 09:18:50;;;;;;;1999.90;999.90;;;;;;;;;;5059321;28;20256;-39
2021/03/21 09:21:44;;;;;;;1999.90;999.90;;;;;;;;;;5060007;28;20207;-35
2021/03/21 09:24:33;;;;;;;1999.90;999.90;;;;;;;;;;5060526;28;20598;-36
2021/03/21 09:27:29;;;;;;;1999.90;999.90;;;;;;;;;;5064778;28;20500;-37
2021/03/21 09:30:21;;;;;;;1999.90;999.90;;;;;;;;;;5080721;28;20204;-36
2021/03/21 09:33:08;;;;;;;1999.90;999.90;;;;;;;;;;5079640;28;20207;-35
2021/03/21 09:35:58;;;;;;;1999.90;999.90;;;;;;;;;;5080398;28;20202;-38
2021/03/21 09:38:49;;;;;;;1999.90;999.90;;;;;;;;;;5079950;28;20640;-33
2021/03/21 09:41:35;;;;;;;1999.90;999.90;;;;;;;;;;5079726;28;20198;-35
2021/03/21 09:44:36;;;;;;;1999.90;999.90;;;;;;;;;;5080112;28;20207;-35
2021/03/21 09:47:30;;;;;;;1999.90;999.90;;;;;;;;;;5079251;28;20246;-35
2021/03/21 09:50:23;;;;;;;1999.90;999.90;;;;;;;;;;5079569;28;20481;-38
2021/03/21 09:53:23;;;;;;;1999.90;999.90;;;;;;;;;;5079883;28;20199;-35
2021/03/21 09:56:13;;;;;;;1999.90;999.90;;;;;;;;;;5079930;28;20261;-36
2021/03/21 09:59:05;;;;;;;1999.90;999.90;;;;;;;;;;5079560;28;20211;-35
2021/03/21 10:01:56;;;;;;;1999.90;999.90;;;;;;;;;;5079756;28;20204;-32
2021/03/21 10:04:58;;;;;;;1999.90;999.90;;;;;;;;;;5079490;28;20220;-37
2021/03/21 10:07:45;;;;;;;1999.90;999.90;;;;;;;;;;5079927;28;20325;-34
2021/03/21 10:10:36;;;;;;;1999.90;999.90;;;;;;;;;;5079538;28;20243;-31
2021/03/21 10:13:32;;;;;;;1999.90;999.90;;;;;;;;;;5079526;28;20281;-33
2021/03/21 10:16:20;;;;;;;1999.90;999.90;;;;;;;;;;5079307;28;20215;-35
2021/03/21 10:19:10;;;;;;;1999.90;999.90;;;;;;;;;;5073182;28;20351;-38
2021/03/21 10:21:58;;;;;;;1999.90;999.90;;;;;;;;;;5059499;28;20661;-33
2021/03/21 10:24:44;;;;;;;1999.90;999.90;;;;;;;;;;5064147;28;20203;-33
2021/03/21 10:27:49;;;;;;;1999.90;999.90;;;;;;;;;;5059096;28;20287;-36
2021/03/21 10:30:56;;;;;;;1999.90;999.90;;;;;;;;;;5059542;28;20202;-35
2021/03/21 10:33:43;;;;;;;1999.90;999.90;;;;;;;;;;5059047;28;20260;-34
2021/03/21 10:36:43;;;;;;;1999.90;999.90;;;;;;;;;;5058456;28;20200;-37
2021/03/21 10:39:48;;;;;;;1999.90;999.90;;;;;;;;;;5058696;28;20208;-38
2021/03/21 10:42:41;;;;;;;1999.90;999.90;;;;;;;;;;5059077;28;20297;-36
2021/03/21 10:45:47;;;;;;;1999.90;999.90;;;;;;;;;;5058989;28;20202;-39
2021/03/21 10:48:50;;;;;;;1999.90;999.90;;;;;;;;;;5058757;28;20313;-39
2021/03/21 10:51:51;;;;;;;1999.90;999.90;;;;;;;;;;5058411;28;20467;-38
2021/03/21 10:54:42;;;;;;;1999.90;999.90;;;;;;;;;;5058607;28;20203;-35
2021/03/21 10:57:35;;;;;;;1999.90;999.90;;;;;;;;;;5058436;28;20336;-35
2021/03/21 11:00:22;;;;;;;1999.90;999.90;;;;;;;;;;5057988;28;20193;-33
2021/03/21 11:03:15;;;;;;;1999.90;999.90;;;;;;;;;;5058197;28;20479;-35
2021/03/21 11:06:14;;;;;;;1999.90;999.90;;;;;;;;;;5057933;28;20204;-35
2021/03/21 11:09:11;;;;;;;1999.90;999.90;;;;;;;;;;5056755;28;20192;-36
2021/03/21 11:11:58;;;;;;;1999.90;999.90;;;;;;;;;;5056786;28;20198;-34
2021/03/21 11:14:44;;;;;;;1999.90;999.90;;;;;;;;;;5056911;28;20378;-35
2021/03/21 11:17:32;;;;;;;1999.90;999.90;;;;;;;;;;5057077;28;20220;-33
2021/03/21 11:20:24;;;;;;;1999.90;999.90;;;;;;;;;;5057078;28;20290;-38
2021/03/21 11:23:21;;;;;;;1999.90;999.90;;;;;;;;;;5058066;28;20254;-36
2021/03/21 11:26:23;;;;;;;1999.90;999.90;;;;;;;;;;5057643;28;20298;-35
2021/03/21 11:29:27;;;;;;;1999.90;999.90;;;;;;;;;;5072123;28;20195;-34
2021/03/21 11:32:15;;;;;;;1999.90;999.90;;;;;;;;;;5078135;28;20620;-39
2021/03/21 11:35:04;;;;;;;1999.90;999.90;;;;;;;;;;5077627;28;20199;-32
2021/03/21 11:37:56;;;;;;;1999.90;999.90;;;;;;;;;;5077697;28;20272;-34
2021/03/21 11:40:42;;;;;;;1999.90;999.90;;;;;;;;;;5076739;28;20592;-34
2021/03/21 11:43:29;;;;;;;1999.90;999.90;;;;;;;;;;5077731;28;20208;-35
2021/03/21 11:46:25;;;;;;;1999.90;999.90;;;;;;;;;;5078007;28;20610;-36
2021/03/21 11:49:12;;;;;;;1999.90;999.90;;;;;;;;;;5077620;28;20490;-34
2021/03/21 11:52:01;;;;;;;1999.90;999.90;;;;;;;;;;5077497;28;20195;-32
2021/03/21 11:54:50;;;;;;;1999.90;999.90;;;;;;;;;;5077483;28;20208;-36
2021/03/21 11:57:42;;;;;;;1999.90;999.90;;;;;;;;;;5077174;28;20591;-33
2021/03/21 12:00:30;;;;;;;1999.90;999.90;;;;;;;;;;5077409;28;20196;-35
2021/03/21 12:03:23;;;;;;;1999.90;999.90;;;;;;;;;;5076717;28;20478;-38
2021/03/21 12:06:31;;;;;;;1999.90;999.90;;;;;;;;;;5077102;28;20304;-33
2021/03/21 12:09:25;;;;;;;1999.90;999.90;;;;;;;;;;5076370;28;20280;-34
2021/03/21 12:12:29;;;;;;;1999.90;999.90;;;;;;;;;;5077281;28;20204;-36
2021/03/21 12:15:33;;;;;;;1999.90;999.90;;;;;;;;;;5077472;28;20339;-31
2021/03/21 12:18:28;;;;;;;1999.90;999.90;;;;;;;;;;5077055;28;20197;-35
2021/03/21 12:21:17;;;;;;;1999.90;999.90;;;;;;;;;;5077466;28;20219;-36
2021/03/21 12:24:08;;;;;;;1999.90;999.90;;;;;;;;;;5077231;28;20238;-35
2021/03/21 12:27:00;;;;;;;1999.90;999.90;;;;;;;;;;5076810;28;20214;-34
2021/03/21 12:29:51;;;;;;;1999.90;999.90;;;;;;;;;;5076687;28;20545;-36
2021/03/21 12:32:41;;;;;;;1999.90;999.90;;;;;;;;;;5077190;28;20200;-34
2021/03/21 12:35:41;;;;;;;1999.90;999.90;;;;;;;;;;5076761;28;20260;-32
2021/03/21 12:38:30;;;;;;;1999.90;999.90;;;;;;;;;;5077509;28;20513;-32
2021/03/21 12:41:23;;;;;;;1999.90;999.90;;;;;;;;;;5076682;28;20439;-33
2021/03/21 12:44:13;;;;;;;1999.90;999.90;;;;;;;;;;5076976;28;20228;-34
2021/03/21 12:47:06;;;;;;;1999.90;999.90;;;;;;;;;;5076585;28;20195;-35
2021/03/21 12:49:55;;;;;;;1999.90;999.90;;;;;;;;;;5076430;28;20658;-36
2021/03/21 12:52:46;;;;;;;1999.90;999.90;;;;;;;;;;5080249;28;20204;-34
2021/03/21 12:55:34;;;;;;;1999.90;999.90;;;;;;;;;;5083581;28;20200;-37
2021/03/21 12:58:25;;;;;;;1999.90;999.90;;;;;;;;;;5084178;28;20197;-39
2021/03/21 13:01:11;;;;;;;1999.90;999.90;;;;;;;;;;5083351;28;20198;-38
2021/03/21 13:03:58;;;;;;;1999.90;999.90;;;;;;;;;;5083025;28;20201;-39
2021/03/21 13:06:52;;;;;;;1999.90;999.90;;;;;;;;;;5082806;28;20669;-36
2021/03/21 13:09:42;;;;;;;1999.90;999.90;;;;;;;;;;5068745;28;20420;-36
2021/03/21 13:12:28;;;;;;;1999.90;999.90;;;;;;;;;;5068119;28;20197;-36
2021/03/21 13:15:15;;;;;;;1999.90;999.90;;;;;;;;;;5082450;28;20361;-33
2021/03/21 13:18:02;;;;;;;1999.90;999.90;;;;;;;;;;5084495;28;20234;-35
2021/03/21 13:20:50;;;;;;;1999.90;999.90;;;;;;;;;;5071573;28;20207;-35
2021/03/21 13:23:35;;;;;;;1999.90;999.90;;;;;;;;;;5063088;28;20579;-35
2021/03/21 13:26:25;;;;;;;1999.90;999.90;;;;;;;;;;5062858;28;20213;-34
2021/03/21 13:29:11;;;;;;;1999.90;999.90;;;;;;;;;;5062995;28;20225;-37
2021/03/21 13:31:57;;;;;;;1999.90;999.90;;;;;;;;;;5062008;28;20275;-33
2021/03/21 13:34:44;;;;;;;1999.90;999.90;;;;;;;;;;5062673;28;20204;-34
2021/03/21 13:37:35;;;;;;;1999.90;999.90;;;;;;;;;;5062822;28;20197;-37
2021/03/21 13:40:25;;;;;;;1999.90;999.90;;;;;;;;;;5062925;28;20205;-32
2021/03/21 13:43:16;;;;;;;1999.90;999.90;;;;;;;;;;5062645;28;20423;-39
2021/03/21 13:46:03;;;;;;;1999.90;999.90;;;;;;;;;;5062649;28;20299;-34
2021/03/21 13:48:49;;;;;;;1999.90;999.90;;;;;;;;;;5062673;28;20503;-34
2021/03/21 13:51:35;;;;;;;1999.90;999.90;;;;;;;;;;5062275;28;20259;-33
2021/03/21 13:54:21;;;;;;;1999.90;999.90;;;;;;;;;;5062663;28;20205;-37
2021/03/21 13:57:08;;;;;;;1999.90;999.90;;;;;;;;;;5062701;28;20225;-38
2021/03/21 13:59:57;;;;;;;1999.90;999.90;;;;;;;;;;5062336;28;20600;-35
2021/03/21 14:02:44;;;;;;;1999.90;999.90;;;;;;;;;;5062499;28;20197;-35
2021/03/21 14:05:34;;;;;;;1999.90;999.90;;;;;;;;;;5060204;28;20221;-37
2021/03/21 14:08:21;;;;;;;1999.90;999.90;;;;;;;;;;5060129;28;20561;-34
2021/03/21 14:11:09;;;;;;;1999.90;999.90;;;;;;;;;;5059477;28;20544;-35
2021/03/21 14:14:05;;;;;;;1999.90;999.90;;;;;;;;;;5059785;28;20473;-34
2021/03/21 14:16:53;;;;;;;1999.90;999.90;;;;;;;;;;5060344;28;20263;-35
2021/03/21 14:19:41;;;;;;;1999.90;999.90;;;;;;;;;;5079864;28;20283;-37
2021/03/21 14:22:27;;;;;;;1999.90;999.90;;;;;;;;;;5078394;28;20336;-36
2021/03/21 14:25:14;;;;;;;1999.90;999.90;;;;;;;;;;5078678;28;20196;-32
2021/03/21 14:28:00;;;;;;;1999.90;999.90;;;;;;;;;;5079110;28;20235;-37
2021/03/21 14:30:46;;;;;;;1999.90;999.90;;;;;;;;;;5079263;28;20206;-36
2021/03/21 14:33:44;;;;;;;1999.90;999.90;;;;;;;;;;5078731;28;20271;-36
2021/03/21 14:36:33;;;;;;;1999.90;999.90;;;;;;;;;;5079977;28;20204;-33
2021/03/21 14:39:19;;;;;;;1999.90;999.90;;;;;;;;;;5079861;28;20586;-33
2021/03/21 14:42:06;;;;;;;1999.90;999.90;;;;;;;;;;5078884;28;20354;-33
2021/03/21 14:44:53;;;;;;;1999.90;999.90;;;;;;;;;;5079014;28;20199;-35
2021/03/21 14:47:40;;;;;;;1999.90;999.90;;;;;;;;;;5063312;28;20679;-36
2021/03/21 14:50:34;;;;;;;1999.90;999.90;;;;;;;;;;5058970;28;20271;-38
2021/03/21 14:53:23;;;;;;;1999.90;999.90;;;;;;;;;;5058641;28;20269;-36
2021/03/21 14:56:09;;;;;;;1999.90;999.90;;;;;;;;;;5058911;28;20649;-37
2021/03/21 14:58:57;;;;;;;1999.90;999.90;;;;;;;;;;5059386;28;20197;-40
2021/03/21 15:01:43;;;;;;;1999.90;999.90;;;;;;;;;;5058435;28;20304;-35
2021/03/21 15:04:38;;;;;;;1999.90;999.90;;;;;;;;;;5058478;28;20209;-36
2021/03/21 15:07:28;;;;;;;1999.90;999.90;;;;;;;;;;5058496;28;20303;-36
2021/03/21 15:10:18;;;;;;;1999.90;999.90;;;;;;;;;;5058475;28;20259;-34
2021/03/21 15:13:18;;;;;;;1999.90;999.90;;;;;;;;;;5058545;28;20251;-35
2021/03/21 15:16:05;;;;;;;1999.90;999.90;;;;;;;;;;5057183;28;20236;-39
2021/03/21 15:18:52;;;;;;;1999.90;999.90;;;;;;;;;;5058523;28;20197;-37
2021/03/21 15:21:38;;;;;;;1999.90;999.90;;;;;;;;;;5058206;28;20632;-34
2021/03/21 15:24:30;;;;;;;1999.90;999.90;;;;;;;;;;5058903;28;20192;-37
2021/03/21 15:27:16;;;;;;;1999.90;999.90;;;;;;;;;;5058065;28;20227;-35
2021/03/21 15:30:07;;;;;;;1999.90;999.90;;;;;;;;;;5057598;28;20209;-33
2021/03/21 15:32:53;;;;;;;1999.90;999.90;;;;;;;;;;5057936;28;20255;-34
2021/03/21 15:35:46;;;;;;;1999.90;999.90;;;;;;;;;;5072769;28;20204;-36
2021/03/21 15:38:33;;;;;;;1999.90;999.90;;;;;;;;;;5057814;28;20482;-34
2021/03/21 15:41:25;;;;;;;1999.90;999.90;;;;;;;;;;5071968;28;20330;-37
2021/03/21 15:44:25;;;;;;;1999.90;999.90;;;;;;;;;;5060371;28;20204;-34
2021/03/21 15:47:33;;;;;;;1999.90;999.90;;;;;;;;;;5077636;28;20278;-36
2021/03/21 15:50:26;;;;;;;1999.90;999.90;;;;;;;;;;5077923;28;20200;-40
2021/03/21 15:53:16;;;;;;;1999.90;999.90;;;;;;;;;;5076932;28;20205;-36
2021/03/21 15:56:02;;;;;;;1999.90;999.90;;;;;;;;;;5058261;28;20288;-36
2021/03/21 15:58:53;;;;;;;1999.90;999.90;;;;;;;;;;5057568;28;20343;-35